sensor_id;sensor_type;location;lat;lon;timestamp;pressure;altitude;pressure_sealevel;temperature;humidity
49947;BME280;35839;48.662;13.300;2023-06-26T04:31:30;97394.28;;;26.60;49.26
49947;BME280;35839;48.662;13.300;2023-06-26T04:33:56;97395.44;;;26.69;49.28
49947;BME280;35839;48.662;13.300;2023-06-26T04:36:23;97394.44;;;26.53;50.20
49947;BME280;35839;48.662;13.300;2023-06-26T04:38:48;97391.78;;;26.80;49.58
49947;BME280;35839;48.662;13.300;2023-06-26T04:41:14;97393.84;;;26.46;50.26
49947;BME280;35839;48.662;13.300;2023-06-26T04:43:40;97391.44;;;26.49;50.70
49947;BME280;35839;48.662;13.300;2023-06-26T04:46:05;97397.63;;;26.72;50.85
49947;BME280;35839;48.662;13.300;2023-06-26T04:48:31;97390.81;;;26.91;50.07
49947;BME280;35839;48.662;13.300;2023-06-26T04:50:56;97393.31;;;26.71;50.38
49947;BME280;35839;48.662;13.300;2023-06-26T04:53:24;97385.56;;;27.02;49.52
49947;BME280;35839;48.662;13.300;2023-06-26T04:55:51;97390.19;;;27.44;48.78
49947;BME280;35839;48.662;13.300;2023-06-26T04:58:16;97380.09;;;27.66;48.78
49947;BME280;35839;48.662;13.300;2023-06-26T05:00:42;97378.75;;;27.21;51.55
49947;BME280;35839;48.662;13.300;2023-06-26T05:03:14;97380.81;;;27.14;51.22
49947;BME280;35839;48.662;13.300;2023-06-26T05:05:40;97382.47;;;27.20;50.56
49947;BME280;35839;48.662;13.300;2023-06-26T05:10:40;97388.09;;;27.51;50.99
49947;BME280;35839;48.662;13.300;2023-06-26T05:13:06;97393.84;;;27.65;50.29
49947;BME280;35839;48.662;13.300;2023-06-26T05:15:31;97388.53;;;28.33;48.22
49947;BME280;35839;48.662;13.300;2023-06-26T05:17:56;97384.03;;;28.59;47.81
49947;BME280;35839;48.662;13.300;2023-06-26T05:20:21;97393.47;;;28.67;48.00
49947;BME280;35839;48.662;13.300;2023-06-26T05:22:47;97395.16;;;28.98;47.65
49947;BME280;35839;48.662;13.300;2023-06-26T05:25:13;97397.81;;;28.83;47.38
49947;BME280;35839;48.662;13.300;2023-06-26T05:27:38;97393.28;;;29.45;45.52
49947;BME280;35839;48.662;13.300;2023-06-26T05:30:04;97389.72;;;29.80;45.21
49947;BME280;35839;48.662;13.300;2023-06-26T05:32:30;97382.75;;;29.44;45.00
49947;BME280;35839;48.662;13.300;2023-06-26T05:34:56;97379.25;;;29.69;44.86
49947;BME280;35839;48.662;13.300;2023-06-26T05:37:22;97381.13;;;29.73;45.76
49947;BME280;35839;48.662;13.300;2023-06-26T05:39:48;97388.56;;;30.02;44.08
49947;BME280;35839;48.662;13.300;2023-06-26T05:42:14;97377.50;;;30.03;42.48
49947;BME280;35839;48.662;13.300;2023-06-26T05:44:39;97384.19;;;30.21;42.57
49947;BME280;35839;48.662;13.300;2023-06-26T05:47:05;97388.97;;;30.45;41.33
49947;BME280;35839;48.662;13.300;2023-06-26T05:49:30;97383.56;;;30.45;40.73
49947;BME280;35839;48.662;13.300;2023-06-26T05:51:56;97392.25;;;30.37;40.51
49947;BME280;35839;48.662;13.300;2023-06-26T05:54:23;97387.41;;;30.34;40.68
49947;BME280;35839;48.662;13.300;2023-06-26T05:56:52;97387.13;;;30.35;40.95
49947;BME280;35839;48.662;13.300;2023-06-26T05:59:20;97379.38;;;30.68;40.00
49947;BME280;35839;48.662;13.300;2023-06-26T06:01:46;97379.25;;;30.83;39.86
49947;BME280;35839;48.662;13.300;2023-06-26T06:04:12;97374.69;;;31.18;39.15
49947;BME280;35839;48.662;13.300;2023-06-26T06:06:37;97385.31;;;31.09;39.43
49947;BME280;35839;48.662;13.300;2023-06-26T06:09:02;97376.75;;;31.61;38.56
49947;BME280;35839;48.662;13.300;2023-06-26T06:11:28;97375.91;;;31.36;39.30
49947;BME280;35839;48.662;13.300;2023-06-26T06:13:53;97378.06;;;31.34;39.16
49947;BME280;35839;48.662;13.300;2023-06-26T06:16:18;97377.50;;;31.37;39.76
49947;BME280;35839;48.662;13.300;2023-06-26T06:18:44;97376.03;;;30.86;40.29
49947;BME280;35839;48.662;13.300;2023-06-26T06:21:09;97377.50;;;31.08;40.39
49947;BME280;35839;48.662;13.300;2023-06-26T06:23:34;97381.03;;;31.67;38.54
49947;BME280;35839;48.662;13.300;2023-06-26T06:25:59;97380.44;;;31.70;38.94
49947;BME280;35839;48.662;13.300;2023-06-26T06:28:25;97391.28;;;31.70;38.38
49947;BME280;35839;48.662;13.300;2023-06-26T06:30:50;97391.75;;;31.77;38.72
49947;BME280;35839;48.662;13.300;2023-06-26T06:33:15;97387.38;;;31.81;38.65
49947;BME280;35839;48.662;13.300;2023-06-26T06:35:40;97389.03;;;31.19;40.78
49947;BME280;35839;48.662;13.300;2023-06-26T06:38:06;97383.22;;;31.65;38.92
49947;BME280;35839;48.662;13.300;2023-06-26T06:40:31;97384.94;;;31.56;37.58
49947;BME280;35839;48.662;13.300;2023-06-26T06:42:56;97391.59;;;31.92;37.07
49947;BME280;35839;48.662;13.300;2023-06-26T06:45:22;97392.25;;;31.79;38.12
49947;BME280;35839;48.662;13.300;2023-06-26T06:47:47;97393.25;;;31.88;37.37
49947;BME280;35839;48.662;13.300;2023-06-26T06:50:12;97388.75;;;32.08;37.46
49947;BME280;35839;48.662;13.300;2023-06-26T06:52:39;97392.00;;;32.48;37.12
49947;BME280;35839;48.662;13.300;2023-06-26T06:55:06;97383.44;;;32.22;36.69
49947;BME280;35839;48.662;13.300;2023-06-26T06:57:35;97384.94;;;32.52;36.08
49947;BME280;35839;48.662;13.300;2023-06-26T07:00:06;97385.38;;;32.97;35.57
49947;BME280;35839;48.662;13.300;2023-06-26T07:02:36;97386.53;;;32.91;35.36
49947;BME280;35839;48.662;13.300;2023-06-26T07:05:02;97385.03;;;32.85;36.04
49947;BME280;35839;48.662;13.300;2023-06-26T07:07:30;97381.72;;;32.88;35.58
49947;BME280;35839;48.662;13.300;2023-06-26T07:10:18;97384.19;;;32.65;36.20
49947;BME280;35839;48.662;13.300;2023-06-26T07:12:43;97384.03;;;33.13;35.71
49947;BME280;35839;48.662;13.300;2023-06-26T07:15:10;97379.22;;;33.10;35.95
49947;BME280;35839;48.662;13.300;2023-06-26T07:17:35;97372.13;;;33.28;35.21
49947;BME280;35839;48.662;13.300;2023-06-26T07:20:03;97372.22;;;33.23;35.27
49947;BME280;35839;48.662;13.300;2023-06-26T07:22:33;97369.31;;;32.82;35.81
49947;BME280;35839;48.662;13.300;2023-06-26T07:24:58;97373.63;;;33.67;35.38
49947;BME280;35839;48.662;13.300;2023-06-26T07:27:23;97371.91;;;33.57;34.03
49947;BME280;35839;48.662;13.300;2023-06-26T07:29:48;97376.09;;;33.17;35.99
49947;BME280;35839;48.662;13.300;2023-06-26T07:32:14;97376.28;;;32.88;36.15
49947;BME280;35839;48.662;13.300;2023-06-26T07:34:39;97375.34;;;33.77;33.93
49947;BME280;35839;48.662;13.300;2023-06-26T07:37:05;97368.84;;;33.45;35.22
49947;BME280;35839;48.662;13.300;2023-06-26T07:39:30;97369.00;;;33.68;35.14
49947;BME280;35839;48.662;13.300;2023-06-26T07:41:56;97377.16;;;33.95;35.11
49947;BME280;35839;48.662;13.300;2023-06-26T07:44:23;97369.56;;;33.51;35.91
49947;BME280;35839;48.662;13.300;2023-06-26T07:46:48;97368.66;;;33.55;34.83
49947;BME280;35839;48.662;13.300;2023-06-26T07:49:14;97369.97;;;34.55;33.12
49947;BME280;35839;48.662;13.300;2023-06-26T07:51:39;97368.22;;;33.81;33.96
49947;BME280;35839;48.662;13.300;2023-06-26T07:54:04;97362.25;;;33.65;35.23
49947;BME280;35839;48.662;13.300;2023-06-26T07:56:30;97358.94;;;33.68;35.27
49947;BME280;35839;48.662;13.300;2023-06-26T07:58:55;97368.84;;;33.45;35.14
49947;BME280;35839;48.662;13.300;2023-06-26T08:01:23;97369.22;;;32.87;36.29
49947;BME280;35839;48.662;13.300;2023-06-26T08:03:48;97364.06;;;33.70;35.07
49947;BME280;35839;48.662;13.300;2023-06-26T08:06:13;97368.22;;;34.59;33.70
49947;BME280;35839;48.662;13.300;2023-06-26T08:08:39;97363.69;;;34.04;34.48
49947;BME280;35839;48.662;13.300;2023-06-26T08:11:05;97371.22;;;34.21;33.95
49947;BME280;35839;48.662;13.300;2023-06-26T08:13:30;97370.69;;;34.60;33.13
49947;BME280;35839;48.662;13.300;2023-06-26T08:15:55;97369.97;;;34.55;33.52
49947;BME280;35839;48.662;13.300;2023-06-26T08:18:20;97368.34;;;34.17;34.45
49947;BME280;35839;48.662;13.300;2023-06-26T08:20:46;97365.91;;;34.16;32.67
49947;BME280;35839;48.662;13.300;2023-06-26T08:23:11;97365.06;;;35.47;31.95
49947;BME280;35839;48.662;13.300;2023-06-26T08:25:36;97357.47;;;34.90;33.22
49947;BME280;35839;48.662;13.300;2023-06-26T08:28:02;97358.66;;;35.52;31.88
49947;BME280;35839;48.662;13.300;2023-06-26T08:30:27;97358.41;;;36.02;31.42
49947;BME280;35839;48.662;13.300;2023-06-26T08:32:55;97362.69;;;35.94;30.36
49947;BME280;35839;48.662;13.300;2023-06-26T08:35:20;97364.88;;;35.43;32.48
49947;BME280;35839;48.662;13.300;2023-06-26T08:37:45;97363.22;;;34.89;33.12
49947;BME280;35839;48.662;13.300;2023-06-26T08:40:12;97361.44;;;34.84;33.38
49947;BME280;35839;48.662;13.300;2023-06-26T08:42:37;97360.31;;;35.30;31.40
49947;BME280;35839;48.662;13.300;2023-06-26T08:45:03;97360.72;;;36.17;30.79
49947;BME280;35839;48.662;13.300;2023-06-26T08:47:29;97351.78;;;36.43;29.35
49947;BME280;35839;48.662;13.300;2023-06-26T08:50:04;97353.56;;;37.00;29.55
49947;BME280;35839;48.662;13.300;2023-06-26T08:52:58;97348.84;;;37.35;29.08
49947;BME280;35839;48.662;13.300;2023-06-26T08:55:27;97341.88;;;35.58;29.74
49947;BME280;35839;48.662;13.300;2023-06-26T08:57:53;97343.59;;;35.77;27.70
49947;BME280;35839;48.662;13.300;2023-06-26T09:00:19;97339.28;;;36.42;27.44
49947;BME280;35839;48.662;13.300;2023-06-26T09:02:45;97343.41;;;37.35;25.95
49947;BME280;35839;48.662;13.300;2023-06-26T09:05:11;97341.59;;;38.16;24.82
49947;BME280;35839;48.662;13.300;2023-06-26T09:07:36;97335.47;;;37.89;24.70
49947;BME280;35839;48.662;13.300;2023-06-26T09:10:01;97342.69;;;38.03;25.30
49947;BME280;35839;48.662;13.300;2023-06-26T09:12:27;97334.84;;;37.37;25.25
49947;BME280;35839;48.662;13.300;2023-06-26T09:14:54;97336.81;;;37.27;25.12
49947;BME280;35839;48.662;13.300;2023-06-26T09:17:24;97336.13;;;36.08;26.11
49947;BME280;35839;48.662;13.300;2023-06-26T09:19:50;97334.84;;;37.45;25.85
49947;BME280;35839;48.662;13.300;2023-06-26T09:22:16;97339.44;;;37.62;26.26
49947;BME280;35839;48.662;13.300;2023-06-26T09:24:43;97329.72;;;38.63;25.52
49947;BME280;35839;48.662;13.300;2023-06-26T09:27:09;97332.75;;;39.03;25.49
49947;BME280;35839;48.662;13.300;2023-06-26T09:29:34;97329.34;;;38.52;25.32
49947;BME280;35839;48.662;13.300;2023-06-26T09:32:00;97330.66;;;37.48;26.53
49947;BME280;35839;48.662;13.300;2023-06-26T09:34:31;97325.19;;;38.67;25.29
49947;BME280;35839;48.662;13.300;2023-06-26T09:36:58;97317.88;;;37.69;25.90
49947;BME280;35839;48.662;13.300;2023-06-26T09:39:23;97328.56;;;38.22;25.61
49947;BME280;35839;48.662;13.300;2023-06-26T09:41:49;97317.28;;;38.02;25.57
49947;BME280;35839;48.662;13.300;2023-06-26T09:44:15;97319.66;;;39.09;24.31
49947;BME280;35839;48.662;13.300;2023-06-26T09:46:41;97313.13;;;39.01;22.46
49947;BME280;35839;48.662;13.300;2023-06-26T09:49:10;97320.69;;;37.52;24.38
49947;BME280;35839;48.662;13.300;2023-06-26T09:51:37;97322.31;;;37.83;25.81
49947;BME280;35839;48.662;13.300;2023-06-26T09:54:04;97309.44;;;36.37;26.64
49947;BME280;35839;48.662;13.300;2023-06-26T09:56:30;97307.97;;;36.57;26.49
49947;BME280;35839;48.662;13.300;2023-06-26T09:58:57;97315.25;;;37.43;26.20
49947;BME280;35839;48.662;13.300;2023-06-26T10:01:23;97305.91;;;38.42;24.64
49947;BME280;35839;48.662;13.300;2023-06-26T10:03:49;97312.16;;;36.98;24.82
49947;BME280;35839;48.662;13.300;2023-06-26T10:06:18;97299.19;;;38.61;24.34
49947;BME280;35839;48.662;13.300;2023-06-26T10:08:44;97297.41;;;39.68;23.83
49947;BME280;35839;48.662;13.300;2023-06-26T10:11:13;97301.53;;;37.05;27.07
49947;BME280;35839;48.662;13.300;2023-06-26T10:13:42;97297.50;;;37.67;26.35
49947;BME280;35839;48.662;13.300;2023-06-26T10:16:11;97296.22;;;38.03;25.02
49947;BME280;35839;48.662;13.300;2023-06-26T10:18:38;97289.34;;;37.11;25.54
49947;BME280;35839;48.662;13.300;2023-06-26T10:21:05;97291.47;;;37.44;26.01
49947;BME280;35839;48.662;13.300;2023-06-26T10:23:31;97293.56;;;37.56;25.21
49947;BME280;35839;48.662;13.300;2023-06-26T10:26:00;97294.13;;;37.70;25.68
49947;BME280;35839;48.662;13.300;2023-06-26T10:28:28;97291.78;;;36.34;27.20
49947;BME280;35839;48.662;13.300;2023-06-26T10:30:56;97288.84;;;35.96;27.42
49947;BME280;35839;48.662;13.300;2023-06-26T10:33:22;97285.66;;;38.34;25.17
49947;BME280;35839;48.662;13.300;2023-06-26T10:35:48;97281.06;;;37.75;25.47
49947;BME280;35839;48.662;13.300;2023-06-26T10:38:14;97286.44;;;37.16;26.55
49947;BME280;35839;48.662;13.300;2023-06-26T10:40:46;97288.88;;;37.00;25.68
49947;BME280;35839;48.662;13.300;2023-06-26T10:43:14;97276.72;;;38.04;24.83
49947;BME280;35839;48.662;13.300;2023-06-26T10:45:45;97268.69;;;37.99;24.84
49947;BME280;35839;48.662;13.300;2023-06-26T10:48:14;97277.97;;;39.73;23.69
49947;BME280;35839;48.662;13.300;2023-06-26T10:50:39;97269.34;;;39.01;24.67
49947;BME280;35839;48.662;13.300;2023-06-26T10:55:37;97272.06;;;38.68;24.89
49947;BME280;35839;48.662;13.300;2023-06-26T10:58:02;97271.53;;;39.20;23.85
49947;BME280;35839;48.662;13.300;2023-06-26T11:00:28;97266.00;;;39.41;22.59
49947;BME280;35839;48.662;13.300;2023-06-26T11:02:53;97260.84;;;40.01;22.94
49947;BME280;35839;48.662;13.300;2023-06-26T11:05:33;97262.56;;;40.46;22.15
49947;BME280;35839;48.662;13.300;2023-06-26T11:08:09;97269.03;;;40.54;22.26
49947;BME280;35839;48.662;13.300;2023-06-26T11:10:54;97265.34;;;37.72;24.08
49947;BME280;35839;48.662;13.300;2023-06-26T11:13:20;97263.44;;;37.94;23.05
49947;BME280;35839;48.662;13.300;2023-06-26T11:15:47;97259.59;;;38.58;22.37
49947;BME280;35839;48.662;13.300;2023-06-26T11:18:13;97253.06;;;39.29;23.63
49947;BME280;35839;48.662;13.300;2023-06-26T11:20:39;97246.94;;;40.34;22.65
49947;BME280;35839;48.662;13.300;2023-06-26T11:23:05;97246.84;;;40.18;22.03
49947;BME280;35839;48.662;13.300;2023-06-26T11:25:36;97257.44;;;39.79;23.74
49947;BME280;35839;48.662;13.300;2023-06-26T11:28:03;97252.47;;;39.11;23.32
49947;BME280;35839;48.662;13.300;2023-06-26T11:30:29;97254.13;;;40.39;22.50
49947;BME280;35839;48.662;13.300;2023-06-26T11:33:05;97254.31;;;38.32;23.91
49947;BME280;35839;48.662;13.300;2023-06-26T11:35:31;97246.00;;;39.65;23.26
49947;BME280;35839;48.662;13.300;2023-06-26T11:37:57;97246.41;;;40.29;21.92
49947;BME280;35839;48.662;13.300;2023-06-26T11:40:25;97249.28;;;40.48;21.64
49947;BME280;35839;48.662;13.300;2023-06-26T11:42:57;97235.41;;;40.85;22.22
49947;BME280;35839;48.662;13.300;2023-06-26T11:45:23;97237.97;;;41.10;21.28
49947;BME280;35839;48.662;13.300;2023-06-26T11:47:48;97237.56;;;41.23;21.78
49947;BME280;35839;48.662;13.300;2023-06-26T11:50:17;97239.38;;;40.72;23.46
49947;BME280;35839;48.662;13.300;2023-06-26T11:52:43;97242.56;;;40.05;23.04
49947;BME280;35839;48.662;13.300;2023-06-26T11:55:08;97247.34;;;39.10;20.22
49947;BME280;35839;48.662;13.300;2023-06-26T11:57:35;97241.13;;;39.58;19.66
49947;BME280;35839;48.662;13.300;2023-06-26T12:00:13;97232.03;;;41.07;20.02
49947;BME280;35839;48.662;13.300;2023-06-26T12:02:39;97231.59;;;41.53;19.07
49947;BME280;35839;48.662;13.300;2023-06-26T12:05:05;97228.88;;;41.88;19.84
49947;BME280;35839;48.662;13.300;2023-06-26T12:07:31;97233.75;;;41.12;20.45
49947;BME280;35839;48.662;13.300;2023-06-26T12:09:57;97226.81;;;40.71;21.38
49947;BME280;35839;48.662;13.300;2023-06-26T12:12:23;97220.09;;;41.47;21.09
49947;BME280;35839;48.662;13.300;2023-06-26T12:14:51;97215.63;;;40.35;20.96
49947;BME280;35839;48.662;13.300;2023-06-26T12:17:16;97214.16;;;40.26;21.57
49947;BME280;35839;48.662;13.300;2023-06-26T12:19:46;97220.03;;;41.79;20.75
49947;BME280;35839;48.662;13.300;2023-06-26T12:22:15;97221.38;;;41.85;20.34
49947;BME280;35839;48.662;13.300;2023-06-26T12:24:42;97217.34;;;42.38;19.66
49947;BME280;35839;48.662;13.300;2023-06-26T12:27:13;97216.38;;;41.56;20.62
49947;BME280;35839;48.662;13.300;2023-06-26T12:29:40;97209.13;;;41.99;19.71
49947;BME280;35839;48.662;13.300;2023-06-26T12:32:10;97225.78;;;41.90;19.10
49947;BME280;35839;48.662;13.300;2023-06-26T12:34:37;97210.34;;;41.02;20.50
49947;BME280;35839;48.662;13.300;2023-06-26T12:37:07;97207.03;;;40.37;21.49
49947;BME280;35839;48.662;13.300;2023-06-26T12:40:05;97205.41;;;42.49;20.56
49947;BME280;35839;48.662;13.300;2023-06-26T12:42:41;97192.13;;;40.94;20.08
49947;BME280;35839;48.662;13.300;2023-06-26T12:45:11;97197.41;;;41.51;19.44
49947;BME280;35839;48.662;13.300;2023-06-26T12:47:36;97191.00;;;41.98;20.11
49947;BME280;35839;48.662;13.300;2023-06-26T12:50:05;97196.91;;;43.24;19.74
49947;BME280;35839;48.662;13.300;2023-06-26T12:52:31;97187.88;;;43.76;18.56
49947;BME280;35839;48.662;13.300;2023-06-26T12:54:56;97185.25;;;43.87;18.57
49947;BME280;35839;48.662;13.300;2023-06-26T12:57:22;97184.44;;;43.83;18.21
49947;BME280;35839;48.662;13.300;2023-06-26T12:59:48;97179.56;;;44.37;18.36
49947;BME280;35839;48.662;13.300;2023-06-26T13:02:13;97174.72;;;42.70;18.34
49947;BME280;35839;48.662;13.300;2023-06-26T13:04:39;97184.41;;;41.00;19.63
49947;BME280;35839;48.662;13.300;2023-06-26T13:07:05;97183.66;;;41.86;18.76
49947;BME280;35839;48.662;13.300;2023-06-26T13:09:32;97165.97;;;43.61;19.51
49947;BME280;35839;48.662;13.300;2023-06-26T13:11:58;97168.72;;;43.61;18.12
49947;BME280;35839;48.662;13.300;2023-06-26T13:14:24;97176.06;;;41.79;19.32
49947;BME280;35839;48.662;13.300;2023-06-26T13:16:49;97159.16;;;42.78;18.06
49947;BME280;35839;48.662;13.300;2023-06-26T13:19:15;97167.16;;;43.60;18.68
49947;BME280;35839;48.662;13.300;2023-06-26T13:21:40;97157.97;;;44.09;18.49
49947;BME280;35839;48.662;13.300;2023-06-26T13:24:07;97148.88;;;43.48;17.71
49947;BME280;35839;48.662;13.300;2023-06-26T13:26:32;97153.16;;;43.45;19.48
49947;BME280;35839;48.662;13.300;2023-06-26T13:28:58;97155.09;;;42.29;17.29
49947;BME280;35839;48.662;13.300;2023-06-26T13:31:23;97146.63;;;41.80;17.68
49947;BME280;35839;48.662;13.300;2023-06-26T13:33:49;97138.00;;;43.32;17.46
49947;BME280;35839;48.662;13.300;2023-06-26T13:36:15;97135.03;;;43.44;21.94
49947;BME280;35839;48.662;13.300;2023-06-26T13:38:41;97142.53;;;41.03;18.53
49947;BME280;35839;48.662;13.300;2023-06-26T13:41:06;97141.81;;;41.22;18.04
49947;BME280;35839;48.662;13.300;2023-06-26T13:43:32;97132.69;;;43.46;19.00
49947;BME280;35839;48.662;13.300;2023-06-26T13:45:57;97129.63;;;44.12;17.96
49947;BME280;35839;48.662;13.300;2023-06-26T13:48:22;97125.34;;;43.84;17.72
49947;BME280;35839;48.662;13.300;2023-06-26T13:50:51;97122.72;;;44.70;17.11
49947;BME280;35839;48.662;13.300;2023-06-26T13:53:16;97118.59;;;44.94;17.88
49947;BME280;35839;48.662;13.300;2023-06-26T13:55:42;97120.53;;;44.90;19.17
49947;BME280;35839;48.662;13.300;2023-06-26T13:58:08;97113.03;;;44.87;18.19
49947;BME280;35839;48.662;13.300;2023-06-26T14:00:35;97109.44;;;44.83;16.90
49947;BME280;35839;48.662;13.300;2023-06-26T14:03:02;97111.88;;;44.91;16.45
49947;BME280;35839;48.662;13.300;2023-06-26T14:05:29;97115.75;;;45.35;16.28
49947;BME280;35839;48.662;13.300;2023-06-26T14:07:54;97108.50;;;44.71;16.64
49947;BME280;35839;48.662;13.300;2023-06-26T14:10:20;97109.03;;;45.32;17.25
49947;BME280;35839;48.662;13.300;2023-06-26T14:12:46;97095.16;;;44.36;16.87
49947;BME280;35839;48.662;13.300;2023-06-26T14:15:11;97095.53;;;44.75;17.30
49947;BME280;35839;48.662;13.300;2023-06-26T14:17:37;97094.53;;;44.46;17.25
49947;BME280;35839;48.662;13.300;2023-06-26T14:20:05;97087.00;;;43.19;18.55
49947;BME280;35839;48.662;13.300;2023-06-26T14:22:31;97095.84;;;45.11;16.23
49947;BME280;35839;48.662;13.300;2023-06-26T14:24:57;97091.00;;;44.97;16.38
49947;BME280;35839;48.662;13.300;2023-06-26T14:27:22;97093.31;;;44.44;17.47
49947;BME280;35839;48.662;13.300;2023-06-26T14:29:47;97087.50;;;42.98;18.15
49947;BME280;35839;48.662;13.300;2023-06-26T14:32:13;97087.00;;;43.19;19.96
49947;BME280;35839;48.662;13.300;2023-06-26T14:34:39;97081.28;;;44.25;17.69
49947;BME280;35839;48.662;13.300;2023-06-26T14:37:05;97088.84;;;42.61;18.37
49947;BME280;35839;48.662;13.300;2023-06-26T14:39:30;97079.16;;;43.47;18.11
49947;BME280;35839;48.662;13.300;2023-06-26T14:41:55;97074.31;;;43.37;17.09
49947;BME280;35839;48.662;13.300;2023-06-26T14:44:21;97081.38;;;43.98;16.73
49947;BME280;35839;48.662;13.300;2023-06-26T14:46:47;97070.25;;;43.91;17.32
49947;BME280;35839;48.662;13.300;2023-06-26T14:49:12;97079.78;;;41.56;18.91
49947;BME280;35839;48.662;13.300;2023-06-26T14:51:38;97070.22;;;42.78;18.01
49947;BME280;35839;48.662;13.300;2023-06-26T14:54:05;97068.34;;;44.33;17.60
49947;BME280;35839;48.662;13.300;2023-06-26T14:56:31;97066.00;;;43.97;17.48
49947;BME280;35839;48.662;13.300;2023-06-26T14:58:56;97066.09;;;45.56;16.69
49947;BME280;35839;48.662;13.300;2023-06-26T15:01:21;97059.19;;;44.66;17.30
49947;BME280;35839;48.662;13.300;2023-06-26T15:03:47;97058.16;;;43.66;17.78
49947;BME280;35839;48.662;13.300;2023-06-26T15:06:12;97054.53;;;41.89;17.82
49947;BME280;35839;48.662;13.300;2023-06-26T15:08:38;97050.78;;;41.98;18.03
49947;BME280;35839;48.662;13.300;2023-06-26T15:11:05;97045.84;;;43.03;17.28
49947;BME280;35839;48.662;13.300;2023-06-26T15:13:31;97059.56;;;43.86;16.31
49947;BME280;35839;48.662;13.300;2023-06-26T15:15:56;97042.53;;;44.55;18.29
49947;BME280;35839;48.662;13.300;2023-06-26T15:18:21;97046.84;;;44.12;16.74
49947;BME280;35839;48.662;13.300;2023-06-26T15:20:46;97047.84;;;44.78;17.14
49947;BME280;35839;48.662;13.300;2023-06-26T15:23:12;97053.41;;;43.66;17.40
49947;BME280;35839;48.662;13.300;2023-06-26T15:25:38;97047.13;;;43.09;18.22
49947;BME280;35839;48.662;13.300;2023-06-26T15:28:04;97046.06;;;44.11;16.21
49947;BME280;35839;48.662;13.300;2023-06-26T15:30:29;97049.41;;;45.38;17.02
49947;BME280;35839;48.662;13.300;2023-06-26T15:32:54;97041.38;;;45.12;16.72
49947;BME280;35839;48.662;13.300;2023-06-26T15:35:20;97030.94;;;44.87;16.85
49947;BME280;35839;48.662;13.300;2023-06-26T15:37:45;97040.94;;;45.94;16.31
49947;BME280;35839;48.662;13.300;2023-06-26T15:40:12;97029.22;;;44.65;16.91
49947;BME280;35839;48.662;13.300;2023-06-26T15:42:48;97025.97;;;45.98;17.37
49947;BME280;35839;48.662;13.300;2023-06-26T15:45:14;97023.59;;;46.08;16.82
49947;BME280;35839;48.662;13.300;2023-06-26T15:47:40;97025.50;;;45.01;16.31
49947;BME280;35839;48.662;13.300;2023-06-26T15:50:07;97016.41;;;45.81;16.52
49947;BME280;35839;48.662;13.300;2023-06-26T15:52:32;97027.97;;;43.80;18.90
49947;BME280;35839;48.662;13.300;2023-06-26T15:54:58;97009.50;;;43.81;17.25
49947;BME280;35839;48.662;13.300;2023-06-26T15:57:23;97015.06;;;44.25;17.79
49947;BME280;35839;48.662;13.300;2023-06-26T15:59:49;96996.41;;;43.74;17.59
49947;BME280;35839;48.662;13.300;2023-06-26T16:02:14;97003.44;;;44.02;17.11
49947;BME280;35839;48.662;13.300;2023-06-26T16:04:39;97000.44;;;44.21;17.06
49947;BME280;35839;48.662;13.300;2023-06-26T16:07:05;97002.38;;;43.80;17.77
49947;BME280;35839;48.662;13.300;2023-06-26T16:09:31;96999.41;;;43.62;18.03
49947;BME280;35839;48.662;13.300;2023-06-26T16:11:56;97000.00;;;43.44;17.10
49947;BME280;35839;48.662;13.300;2023-06-26T16:14:21;97000.72;;;41.69;17.87
49947;BME280;35839;48.662;13.300;2023-06-26T16:16:46;96988.88;;;42.30;18.83
49947;BME280;35839;48.662;13.300;2023-06-26T16:19:12;96990.75;;;42.26;18.97
49947;BME280;35839;48.662;13.300;2023-06-26T16:21:37;96992.13;;;42.13;18.42
49947;BME280;35839;48.662;13.300;2023-06-26T16:24:02;96983.75;;;42.79;18.32
49947;BME280;35839;48.662;13.300;2023-06-26T16:26:28;96979.22;;;43.50;17.51
49947;BME280;35839;48.662;13.300;2023-06-26T16:28:53;96967.41;;;43.53;17.74
49947;BME280;35839;48.662;13.300;2023-06-26T16:31:18;96963.38;;;44.22;16.61
49947;BME280;35839;48.662;13.300;2023-06-26T16:33:44;96952.66;;;43.69;17.49
49947;BME280;35839;48.662;13.300;2023-06-26T16:36:10;96956.28;;;44.21;17.00
49947;BME280;35839;48.662;13.300;2023-06-26T16:38:35;96955.13;;;43.81;17.27
49947;BME280;35839;48.662;13.300;2023-06-26T16:41:02;96948.53;;;42.91;18.04
49947;BME280;35839;48.662;13.300;2023-06-26T16:43:28;96941.78;;;43.15;18.08
49947;BME280;35839;48.662;13.300;2023-06-26T16:45:53;96938.84;;;42.74;18.21
49947;BME280;35839;48.662;13.300;2023-06-26T16:48:18;96934.06;;;43.28;18.22
49947;BME280;35839;48.662;13.300;2023-06-26T16:50:44;96940.19;;;42.58;18.77
49947;BME280;35839;48.662;13.300;2023-06-26T16:53:09;96943.88;;;42.42;19.50
49947;BME280;35839;48.662;13.300;2023-06-26T16:55:34;96941.13;;;42.19;19.01
49947;BME280;35839;48.662;13.300;2023-06-26T16:58:00;96934.88;;;41.34;19.47
49947;BME280;35839;48.662;13.300;2023-06-26T17:00:25;96938.09;;;41.39;20.16
49947;BME280;35839;48.662;13.300;2023-06-26T17:02:53;96948.31;;;41.39;19.88
49947;BME280;35839;48.662;13.300;2023-06-26T17:05:18;96937.22;;;42.43;18.58
49947;BME280;35839;48.662;13.300;2023-06-26T17:07:43;96931.25;;;41.92;18.87
49947;BME280;35839;48.662;13.300;2023-06-26T17:10:09;96928.81;;;40.70;20.38
49947;BME280;35839;48.662;13.300;2023-06-26T17:12:37;96930.75;;;40.53;20.17
49947;BME280;35839;48.662;13.300;2023-06-26T17:15:03;96937.31;;;41.58;20.10
49947;BME280;35839;48.662;13.300;2023-06-26T17:17:29;96942.28;;;40.11;22.26
49947;BME280;35839;48.662;13.300;2023-06-26T17:19:54;96931.19;;;39.76;21.66
49947;BME280;35839;48.662;13.300;2023-06-26T17:22:19;96928.53;;;39.07;23.60